sensor_id;sensor_type;location;lat;lon;timestamp;pressure;altitude;pressure_sealevel;temperature
65765;BMP180;52915;53.718;19.946;2022-11-27T00:05:59;101596.40;;;2.50
65765;BMP180;52915;53.718;19.946;2022-11-27T00:11:14;101591.40;;;2.50
65765;BMP180;52915;53.718;19.946;2022-11-27T00:16:20;101586.60;;;2.50
65765;BMP180;52915;53.718;19.946;2022-11-27T00:28:29;101581.20;;;2.60
65765;BMP180;52915;53.718;19.946;2022-11-27T00:39:59;101583.60;;;2.70
65765;BMP180;52915;53.718;19.946;2022-11-27T00:45:54;101579.40;;;2.60
65765;BMP180;52915;53.718;19.946;2022-11-27T01:07:03;101562.60;;;2.50
65765;BMP180;52915;53.718;19.946;2022-11-27T01:12:07;101560.40;;;2.50
65765;BMP180;52915;53.718;19.946;2022-11-27T01:17:11;101562.40;;;2.60
65765;BMP180;52915;53.718;19.946;2022-11-27T01:22:15;101564.20;;;2.50
65765;BMP180;52915;53.718;19.946;2022-11-27T01:27:19;101562.60;;;2.50
65765;BMP180;52915;53.718;19.946;2022-11-27T01:33:13;101557.40;;;2.60
65765;BMP180;52915;53.718;19.946;2022-11-27T01:38:17;101563.80;;;2.50
65765;BMP180;52915;53.718;19.946;2022-11-27T01:43:49;101561.20;;;2.50
65765;BMP180;52915;53.718;19.946;2022-11-27T02:02:03;101564.00;;;2.40
65765;BMP180;52915;53.718;19.946;2022-11-27T02:07:32;101565.20;;;2.40
65765;BMP180;52915;53.718;19.946;2022-11-27T02:29:03;101572.40;;;2.40
65765;BMP180;52915;53.718;19.946;2022-11-27T02:39:29;101579.20;;;2.50
65765;BMP180;52915;53.718;19.946;2022-11-27T02:44:47;101581.80;;;2.50
65765;BMP180;52915;53.718;19.946;2022-11-27T02:49:53;101591.80;;;2.48
65765;BMP180;52915;53.718;19.946;2022-11-27T02:55:06;101592.80;;;2.50
65765;BMP180;52915;53.718;19.946;2022-11-27T03:13:52;101579.20;;;2.40
65765;BMP180;52915;53.718;19.946;2022-11-27T03:19:37;101583.40;;;2.30
65765;BMP180;52915;53.718;19.946;2022-11-27T03:24:42;101591.80;;;2.40
65765;BMP180;52915;53.718;19.946;2022-11-27T03:29:59;101578.60;;;2.50
65765;BMP180;52915;53.718;19.946;2022-11-27T03:35:08;101578.60;;;2.62
65765;BMP180;52915;53.718;19.946;2022-11-27T03:59:59;101586.80;;;2.70
65765;BMP180;52915;53.718;19.946;2022-11-27T04:12:36;101591.00;;;2.50
65765;BMP180;52915;53.718;19.946;2022-11-27T04:17:40;101589.80;;;2.60
65765;BMP180;52915;53.718;19.946;2022-11-27T04:29:59;101580.80;;;2.60
65765;BMP180;52915;53.718;19.946;2022-11-27T04:35:03;101580.60;;;2.50
65765;BMP180;52915;53.718;19.946;2022-11-27T04:44:34;101584.80;;;2.78
65765;BMP180;52915;53.718;19.946;2022-11-27T05:00:20;101582.00;;;2.50
65765;BMP180;52915;53.718;19.946;2022-11-27T05:05:24;101576.60;;;2.50
65765;BMP180;52915;53.718;19.946;2022-11-27T05:10:28;101574.20;;;2.50
65765;BMP180;52915;53.718;19.946;2022-11-27T05:15:32;101565.40;;;2.54
65765;BMP180;52915;53.718;19.946;2022-11-27T05:20:45;101560.60;;;2.62
65765;BMP180;52915;53.718;19.946;2022-11-27T05:26:39;101556.80;;;2.60
65765;BMP180;52915;53.718;19.946;2022-11-27T05:31:44;101559.40;;;2.50
65765;BMP180;52915;53.718;19.946;2022-11-27T05:36:49;101555.60;;;2.50
65765;BMP180;52915;53.718;19.946;2022-11-27T05:41:52;101557.00;;;2.60
65765;BMP180;52915;53.718;19.946;2022-11-27T05:46:56;101557.60;;;2.70
65765;BMP180;52915;53.718;19.946;2022-11-27T05:59:26;101567.00;;;2.54
65765;BMP180;52915;53.718;19.946;2022-11-27T06:05:31;101561.60;;;2.56
65765;BMP180;52915;53.718;19.946;2022-11-27T06:17:39;101556.20;;;2.74
65765;BMP180;52915;53.718;19.946;2022-11-27T06:22:43;101549.60;;;2.70
65765;BMP180;52915;53.718;19.946;2022-11-27T06:27:48;101549.60;;;2.50
65765;BMP180;52915;53.718;19.946;2022-11-27T06:39:18;101555.40;;;2.70
65765;BMP180;52915;53.718;19.946;2022-11-27T06:44:22;101554.20;;;2.60
65765;BMP180;52915;53.718;19.946;2022-11-27T06:49:25;101554.80;;;2.50
65765;BMP180;52915;53.718;19.946;2022-11-27T07:08:50;101550.00;;;2.64
65765;BMP180;52915;53.718;19.946;2022-11-27T07:29:14;101543.40;;;2.80
65765;BMP180;52915;53.718;19.946;2022-11-27T07:41:23;101548.40;;;3.10
65765;BMP180;52915;53.718;19.946;2022-11-27T07:46:34;101553.60;;;3.10
65765;BMP180;52915;53.718;19.946;2022-11-27T07:52:30;101544.80;;;2.90
65765;BMP180;52915;53.718;19.946;2022-11-27T07:58:28;101547.20;;;3.00
65765;BMP180;52915;53.718;19.946;2022-11-27T08:03:59;101553.80;;;3.10
65765;BMP180;52915;53.718;19.946;2022-11-27T08:21:52;101556.80;;;3.18
65765;BMP180;52915;53.718;19.946;2022-11-27T08:33:46;101567.80;;;2.92
65765;BMP180;52915;53.718;19.946;2022-11-27T08:38:50;101578.40;;;3.10
65765;BMP180;52915;53.718;19.946;2022-11-27T08:43:54;101575.80;;;3.30
65765;BMP180;52915;53.718;19.946;2022-11-27T08:48:58;101582.00;;;3.40
65765;BMP180;52915;53.718;19.946;2022-11-27T08:54:03;101586.60;;;3.30
65765;BMP180;52915;53.718;19.946;2022-11-27T09:13:53;101581.00;;;3.40
65765;BMP180;52915;53.718;19.946;2022-11-27T09:48:04;101581.60;;;3.90
65765;BMP180;52915;53.718;19.946;2022-11-27T09:53:55;101581.20;;;3.90
65765;BMP180;52915;53.718;19.946;2022-11-27T09:59:03;101578.80;;;4.00
65765;BMP180;52915;53.718;19.946;2022-11-27T10:04:15;101580.40;;;4.10
65765;BMP180;52915;53.718;19.946;2022-11-27T10:09:36;101580.60;;;4.26
65765;BMP180;52915;53.718;19.946;2022-11-27T10:41:50;101567.60;;;4.10
65765;BMP180;52915;53.718;19.946;2022-11-27T10:47:35;101568.20;;;4.10
65765;BMP180;52915;53.718;19.946;2022-11-27T10:53:05;101571.20;;;4.10
65765;BMP180;52915;53.718;19.946;2022-11-27T11:12:26;101549.60;;;4.00
65765;BMP180;52915;53.718;19.946;2022-11-27T11:18:25;101556.00;;;3.90
65765;BMP180;52915;53.718;19.946;2022-11-27T11:24:22;101557.40;;;3.80
65765;BMP180;52915;53.718;19.946;2022-11-27T11:51:28;101549.60;;;4.10
65765;BMP180;52915;53.718;19.946;2022-11-27T11:56:44;101546.40;;;4.10
65765;BMP180;52915;53.718;19.946;2022-11-27T12:10:11;101536.60;;;4.10
65765;BMP180;52915;53.718;19.946;2022-11-27T12:15:55;101534.20;;;4.08
65765;BMP180;52915;53.718;19.946;2022-11-27T13:08:25;101525.40;;;4.20
65765;BMP180;52915;53.718;19.946;2022-11-27T13:14:18;101523.20;;;4.00
65765;BMP180;52915;53.718;19.946;2022-11-27T13:19:30;101520.40;;;4.10
65765;BMP180;52915;53.718;19.946;2022-11-27T13:25:00;101521.00;;;4.10
65765;BMP180;52915;53.718;19.946;2022-11-27T13:30:07;101522.40;;;4.10
65765;BMP180;52915;53.718;19.946;2022-11-27T13:35:39;101523.00;;;4.20
65765;BMP180;52915;53.718;19.946;2022-11-27T13:40:52;101520.20;;;4.20
65765;BMP180;52915;53.718;19.946;2022-11-27T13:46:18;101525.80;;;4.26
65765;BMP180;52915;53.718;19.946;2022-11-27T13:51:33;101516.80;;;4.22
65765;BMP180;52915;53.718;19.946;2022-11-27T13:56:39;101510.20;;;4.20
65765;BMP180;52915;53.718;19.946;2022-11-27T14:01:58;101508.80;;;4.10
65765;BMP180;52915;53.718;19.946;2022-11-27T14:21:03;101496.40;;;4.06
65765;BMP180;52915;53.718;19.946;2022-11-27T14:27:15;101494.80;;;4.00
65765;BMP180;52915;53.718;19.946;2022-11-27T14:32:20;101495.00;;;4.00
65765;BMP180;52915;53.718;19.946;2022-11-27T14:52:21;101501.60;;;4.00
65765;BMP180;52915;53.718;19.946;2022-11-27T15:12:13;101504.80;;;4.00
65765;BMP180;52915;53.718;19.946;2022-11-27T15:18:15;101506.20;;;3.98
65765;BMP180;52915;53.718;19.946;2022-11-27T15:41:24;101507.60;;;4.00
65765;BMP180;52915;53.718;19.946;2022-11-27T15:53:20;101509.00;;;3.86
65765;BMP180;52915;53.718;19.946;2022-11-27T15:58:50;101505.80;;;3.80
65765;BMP180;52915;53.718;19.946;2022-11-27T16:04:16;101501.80;;;3.80
65765;BMP180;52915;53.718;19.946;2022-11-27T16:09:46;101506.00;;;3.92
65765;BMP180;52915;53.718;19.946;2022-11-27T16:22:44;101500.40;;;4.10
65765;BMP180;52915;53.718;19.946;2022-11-27T16:35:00;101497.80;;;4.10
65765;BMP180;52915;53.718;19.946;2022-11-27T16:40:04;101501.40;;;4.10
65765;BMP180;52915;53.718;19.946;2022-11-27T16:45:09;101501.60;;;4.20
65765;BMP180;52915;53.718;19.946;2022-11-27T16:50:13;101502.20;;;4.16
65765;BMP180;52915;53.718;19.946;2022-11-27T16:55:17;101496.20;;;4.10
65765;BMP180;52915;53.718;19.946;2022-11-27T17:00:21;101496.20;;;4.20
65765;BMP180;52915;53.718;19.946;2022-11-27T17:05:25;101496.00;;;4.20
65765;BMP180;52915;53.718;19.946;2022-11-27T17:10:29;101494.00;;;4.20
65765;BMP180;52915;53.718;19.946;2022-11-27T17:15:35;101487.00;;;4.20
65765;BMP180;52915;53.718;19.946;2022-11-27T17:20:43;101487.80;;;4.20
65765;BMP180;52915;53.718;19.946;2022-11-27T17:25:47;101480.00;;;4.30
65765;BMP180;52915;53.718;19.946;2022-11-27T17:30:50;101474.00;;;4.20
65765;BMP180;52915;53.718;19.946;2022-11-27T17:35:54;101476.00;;;4.30
65765;BMP180;52915;53.718;19.946;2022-11-27T17:41:06;101477.40;;;4.40
65765;BMP180;52915;53.718;19.946;2022-11-27T18:00:54;101465.20;;;4.10
65765;BMP180;52915;53.718;19.946;2022-11-27T18:06:24;101461.00;;;4.10
65765;BMP180;52915;53.718;19.946;2022-11-27T18:33:34;101461.00;;;4.00
65765;BMP180;52915;53.718;19.946;2022-11-27T18:39:12;101463.40;;;4.04
65765;BMP180;52915;53.718;19.946;2022-11-27T18:50:38;101444.80;;;4.00
65765;BMP180;52915;53.718;19.946;2022-11-27T18:55:43;101440.60;;;4.00
65765;BMP180;52915;53.718;19.946;2022-11-27T19:00:53;101437.40;;;3.90
65765;BMP180;52915;53.718;19.946;2022-11-27T19:06:04;101439.40;;;4.10
65765;BMP180;52915;53.718;19.946;2022-11-27T19:11:43;101437.20;;;4.10
65765;BMP180;52915;53.718;19.946;2022-11-27T19:16:47;101431.40;;;3.90
65765;BMP180;52915;53.718;19.946;2022-11-27T19:21:53;101431.00;;;4.10
65765;BMP180;52915;53.718;19.946;2022-11-27T19:27:50;101438.00;;;4.12
65765;BMP180;52915;53.718;19.946;2022-11-27T19:32:55;101429.00;;;4.22
65765;BMP180;52915;53.718;19.946;2022-11-27T19:37:59;101423.40;;;4.08
65765;BMP180;52915;53.718;19.946;2022-11-27T19:43:29;101421.20;;;4.10
65765;BMP180;52915;53.718;19.946;2022-11-27T19:48:33;101415.60;;;4.20
65765;BMP180;52915;53.718;19.946;2022-11-27T19:53:38;101418.80;;;4.10
65765;BMP180;52915;53.718;19.946;2022-11-27T19:58:42;101413.60;;;3.80
65765;BMP180;52915;53.718;19.946;2022-11-27T20:03:47;101413.80;;;3.80
65765;BMP180;52915;53.718;19.946;2022-11-27T20:08:58;101421.40;;;3.90
65765;BMP180;52915;53.718;19.946;2022-11-27T20:14:09;101419.80;;;4.00
65765;BMP180;52915;53.718;19.946;2022-11-27T20:19:18;101417.60;;;4.20
65765;BMP180;52915;53.718;19.946;2022-11-27T20:24:23;101423.80;;;4.26
65765;BMP180;52915;53.718;19.946;2022-11-27T20:29:28;101424.80;;;4.18
65765;BMP180;52915;53.718;19.946;2022-11-27T20:34:32;101425.00;;;4.00
65765;BMP180;52915;53.718;19.946;2022-11-27T20:39:36;101429.00;;;3.86
65765;BMP180;52915;53.718;19.946;2022-11-27T20:44:41;101437.60;;;3.88
65765;BMP180;52915;53.718;19.946;2022-11-27T20:49:45;101440.20;;;4.00
65765;BMP180;52915;53.718;19.946;2022-11-27T20:54:49;101438.60;;;4.10
65765;BMP180;52915;53.718;19.946;2022-11-27T20:59:53;101442.40;;;4.20
65765;BMP180;52915;53.718;19.946;2022-11-27T21:04:58;101438.20;;;4.20
65765;BMP180;52915;53.718;19.946;2022-11-27T21:10:04;101430.20;;;4.20
65765;BMP180;52915;53.718;19.946;2022-11-27T21:15:09;101417.80;;;4.10
65765;BMP180;52915;53.718;19.946;2022-11-27T21:20:13;101416.80;;;3.90
65765;BMP180;52915;53.718;19.946;2022-11-27T21:25:17;101410.20;;;3.80
65765;BMP180;52915;53.718;19.946;2022-11-27T21:30:27;101410.60;;;3.90
65765;BMP180;52915;53.718;19.946;2022-11-27T21:35:31;101404.20;;;4.00
65765;BMP180;52915;53.718;19.946;2022-11-27T21:40:41;101406.60;;;4.00
65765;BMP180;52915;53.718;19.946;2022-11-27T21:45:45;101410.40;;;4.08
65765;BMP180;52915;53.718;19.946;2022-11-27T21:50:49;101406.20;;;4.10
65765;BMP180;52915;53.718;19.946;2022-11-27T21:55:54;101398.40;;;4.10
65765;BMP180;52915;53.718;19.946;2022-11-27T22:01:00;101395.20;;;4.10
65765;BMP180;52915;53.718;19.946;2022-11-27T22:06:08;101394.80;;;4.10
65765;BMP180;52915;53.718;19.946;2022-11-27T22:11:20;101396.80;;;4.00
65765;BMP180;52915;53.718;19.946;2022-11-27T22:16:50;101387.80;;;3.90
65765;BMP180;52915;53.718;19.946;2022-11-27T22:22:04;101394.00;;;3.88
65765;BMP180;52915;53.718;19.946;2022-11-27T22:27:08;101391.00;;;3.80
65765;BMP180;52915;53.718;19.946;2022-11-27T22:32:12;101399.00;;;3.78
65765;BMP180;52915;53.718;19.946;2022-11-27T23:13:39;101401.40;;;3.80
65765;BMP180;52915;53.718;19.946;2022-11-27T23:19:19;101398.40;;;3.70
65765;BMP180;52915;53.718;19.946;2022-11-27T23:31:30;101400.80;;;3.90
65765;BMP180;52915;53.718;19.946;2022-11-27T23:37:01;101398.60;;;3.90
65765;BMP180;52915;53.718;19.946;2022-11-27T23:42:05;101396.00;;;4.00
65765;BMP180;52915;53.718;19.946;2022-11-27T23:47:09;101391.60;;;4.10
65765;BMP180;52915;53.718;19.946;2022-11-27T23:52:13;101399.40;;;4.10
65765;BMP180;52915;53.718;19.946;2022-11-27T23:58:09;101389.60;;;4.00
